createdAt,value
2023-02-01T00:01:23.625Z,15.40
2023-02-01T00:03:51.639Z,17.70
2023-02-01T00:06:21.349Z,20.30
2023-02-01T00:08:49.329Z,15.60
2023-02-01T00:11:17.303Z,16.00
2023-02-01T00:13:45.511Z,13.70
2023-02-01T00:16:17.361Z,18.60
2023-02-01T00:18:46.175Z,14.00
2023-02-01T00:21:15.836Z,16.80
2023-02-01T00:23:44.948Z,16.90
2023-02-01T00:26:17.634Z,18.00
2023-02-01T00:28:46.261Z,20.00
2023-02-01T00:31:15.994Z,22.20
2023-02-01T00:33:44.059Z,22.00
2023-02-01T00:36:12.342Z,16.10
2023-02-01T00:38:40.629Z,21.50
2023-02-01T00:41:12.530Z,16.70
2023-02-01T00:43:40.423Z,19.40
2023-02-01T00:46:08.704Z,20.80
2023-02-01T00:48:37.195Z,20.00
2023-02-01T00:51:09.562Z,19.10
2023-02-01T00:53:37.596Z,17.90
2023-02-01T00:56:07.749Z,23.20
2023-02-01T00:58:36.030Z,18.50
2023-02-01T01:01:08.971Z,20.80
2023-02-01T01:03:41.606Z,19.50
2023-02-01T01:06:12.136Z,18.80
2023-02-01T01:08:40.216Z,19.90
2023-02-01T01:11:19.896Z,21.90
2023-02-01T01:13:49.317Z,23.50
2023-02-01T01:16:17.434Z,21.20
2023-02-01T01:18:45.925Z,24.80
2023-02-01T01:21:15.082Z,21.80
2023-02-01T01:23:43.624Z,21.90
2023-02-01T01:26:17.050Z,22.90
2023-02-01T01:28:45.810Z,28.30
2023-02-01T01:31:14.911Z,13.70
2023-02-01T01:33:44.946Z,20.10
2023-02-01T01:36:13.326Z,21.50
2023-02-01T01:38:41.579Z,20.00
2023-02-01T01:41:12.749Z,17.50
2023-02-01T01:44:28.519Z,12.40
2023-02-01T01:46:56.713Z,18.30
2023-02-01T01:49:25.212Z,14.20
2023-02-01T01:51:55.729Z,14.20
2023-02-01T01:54:26.974Z,16.80
2023-02-01T01:56:58.098Z,16.20
2023-02-01T01:59:26.347Z,15.20
2023-02-01T02:01:54.411Z,14.50
2023-02-01T02:04:22.626Z,20.70
2023-02-01T02:07:01.074Z,18.60
2023-02-01T02:09:29.125Z,15.40
2023-02-01T02:11:57.041Z,18.50
2023-02-01T02:14:24.992Z,29.00
2023-02-01T02:16:52.990Z,18.50
2023-02-01T02:19:58.821Z,17.90
2023-02-01T02:22:37.008Z,22.30
2023-02-01T02:28:13.883Z,22.10
2023-02-01T02:31:18.870Z,23.30
2023-02-01T02:33:50.207Z,21.30
2023-02-01T02:36:34.166Z,22.40
2023-02-01T02:39:11.222Z,17.80
2023-02-01T02:42:14.965Z,20.00
2023-02-01T02:45:18.761Z,16.60
2023-02-01T02:48:19.022Z,18.50
2023-02-01T02:51:21.676Z,15.20
2023-02-01T02:54:22.651Z,16.90
2023-02-01T02:57:09.324Z,13.90
2023-02-01T02:59:56.070Z,16.90
2023-02-01T03:02:43.210Z,15.60
2023-02-01T03:05:11.758Z,19.40
2023-02-01T03:07:56.444Z,19.70
2023-02-01T03:10:42.101Z,16.60
2023-02-01T03:13:15.309Z,18.60
2023-02-01T03:16:06.384Z,15.20
2023-02-01T03:18:39.567Z,22.00
2023-02-01T03:21:11.531Z,17.50
2023-02-01T03:23:40.012Z,18.70
2023-02-01T03:26:10.818Z,20.70
2023-02-01T03:28:40.323Z,20.20
2023-02-01T03:31:08.984Z,20.30
2023-02-01T03:33:38.113Z,25.10
2023-02-01T03:36:27.102Z,19.60
2023-02-01T03:39:18.096Z,16.30
2023-02-01T03:41:54.491Z,22.00
2023-02-01T03:44:22.607Z,22.20
2023-02-01T03:47:24.210Z,25.20
2023-02-01T03:50:01.680Z,21.00
2023-02-01T03:53:04.895Z,21.90
2023-02-01T03:55:33.779Z,18.60
2023-02-01T03:58:13.372Z,18.30
2023-02-01T04:00:41.764Z,21.80
2023-02-01T04:03:09.880Z,30.00
2023-02-01T04:05:38.135Z,31.00
2023-02-01T04:08:08.300Z,32.80
2023-02-01T04:10:38.331Z,42.10
2023-02-01T04:13:06.806Z,40.70
2023-02-01T04:15:35.948Z,35.90
2023-02-01T04:18:04.099Z,34.20
2023-02-01T04:20:32.742Z,26.10
2023-02-01T04:23:03.601Z,22.10
2023-02-01T04:25:31.686Z,22.80
2023-02-01T04:28:00.514Z,18.40
2023-02-01T04:30:29.014Z,21.60
2023-02-01T04:32:57.072Z,21.30
2023-02-01T04:35:30.513Z,21.30
2023-02-01T04:37:58.479Z,18.40
2023-02-01T04:40:27.289Z,18.00
2023-02-01T04:42:55.224Z,22.30
2023-02-01T04:45:23.209Z,24.60
2023-02-01T04:47:54.300Z,18.50
2023-02-01T04:50:23.042Z,20.90
2023-02-01T04:52:51.527Z,24.10
2023-02-01T04:55:19.855Z,19.40
2023-02-01T04:57:47.797Z,24.50
2023-02-01T05:00:16.612Z,22.20
2023-02-01T05:02:44.717Z,22.80
2023-02-01T05:05:12.732Z,27.30
2023-02-01T05:07:40.776Z,35.90
2023-02-01T05:10:09.558Z,44.50
2023-02-01T05:12:56.487Z,34.90
2023-02-01T05:15:24.556Z,24.00
2023-02-01T05:17:52.805Z,20.00
2023-02-01T05:20:21.022Z,24.30
2023-02-01T05:22:49.188Z,23.10
2023-02-01T05:25:17.317Z,28.10
2023-02-01T05:27:45.232Z,28.10
2023-02-01T05:30:13.935Z,25.60
2023-02-01T05:32:42.266Z,27.40
2023-02-01T05:35:10.491Z,23.20
2023-02-01T05:37:41.797Z,24.80
2023-02-01T05:40:10.597Z,25.80
2023-02-01T05:42:38.734Z,30.50
2023-02-01T05:45:08.638Z,26.20
2023-02-01T05:47:37.149Z,25.60
2023-02-01T05:50:06.324Z,22.70
2023-02-01T05:52:34.318Z,31.80
2023-02-01T05:55:02.458Z,30.20
2023-02-01T05:57:31.237Z,29.90
2023-02-01T06:00:00.531Z,22.70
2023-02-01T06:02:28.987Z,27.00
2023-02-01T06:04:57.137Z,25.40
2023-02-01T06:07:25.143Z,24.00
2023-02-01T06:09:53.125Z,25.00
2023-02-01T06:12:21.110Z,27.60
2023-02-01T06:14:49.805Z,21.40
2023-02-01T06:17:21.783Z,22.40
2023-02-01T06:19:49.751Z,22.90
2023-02-01T06:22:17.759Z,29.90
2023-02-01T06:24:45.759Z,29.40
2023-02-01T06:27:14.645Z,24.60
2023-02-01T06:29:42.965Z,25.60
2023-02-01T06:32:11.569Z,29.20
2023-02-01T06:34:41.803Z,26.80
2023-02-01T06:37:14.732Z,29.90
2023-02-01T06:39:44.387Z,22.80
2023-02-01T06:42:12.383Z,27.00
2023-02-01T06:44:41.908Z,23.80
2023-02-01T06:47:09.991Z,22.30
2023-02-01T06:49:38.339Z,25.30
2023-02-01T06:52:06.289Z,22.20
2023-02-01T06:54:35.206Z,24.50
2023-02-01T06:57:03.348Z,25.70
2023-02-01T06:59:31.270Z,19.50
2023-02-01T07:01:59.209Z,23.40
2023-02-01T07:04:27.689Z,19.90
2023-02-01T07:06:55.692Z,22.00
2023-02-01T07:09:24.761Z,24.80
2023-02-01T07:11:52.946Z,22.20
2023-02-01T07:14:20.944Z,23.80
2023-02-01T07:16:48.921Z,28.00
2023-02-01T07:19:17.045Z,21.80
2023-02-01T07:21:46.419Z,22.40
2023-02-01T07:24:15.785Z,20.00
2023-02-01T07:26:43.788Z,28.70
2023-02-01T07:29:11.946Z,25.40
2023-02-01T07:31:40.047Z,27.50
2023-02-01T07:34:08.867Z,22.90
2023-02-01T07:36:38.483Z,18.00
2023-02-01T07:39:06.781Z,18.40
2023-02-01T07:41:36.704Z,18.00
2023-02-01T10:35:01.318Z,18.30
2023-02-01T10:37:33.178Z,19.80
2023-02-01T10:40:15.632Z,14.90
2023-02-01T10:42:46.564Z,18.80
2023-02-01T10:45:17.605Z,18.50
2023-02-01T10:47:45.918Z,19.80
2023-02-01T10:50:41.543Z,14.20
2023-02-01T10:53:13.271Z,17.30
2023-02-01T10:55:47.115Z,15.00
2023-02-01T10:58:32.852Z,16.10
2023-02-01T11:01:06.307Z,20.10
2023-02-01T11:04:01.238Z,14.70
2023-02-01T11:06:31.358Z,17.40
2023-02-01T11:09:09.265Z,15.30
2023-02-01T11:11:49.762Z,20.80
2023-02-01T11:14:19.861Z,18.60
2023-02-01T11:16:56.893Z,11.50
2023-02-01T11:19:25.472Z,12.90
2023-02-01T11:21:59.334Z,12.70
2023-02-01T11:24:30.233Z,16.70
2023-02-01T11:26:59.121Z,16.10
2023-02-01T11:29:37.402Z,18.90
2023-02-01T11:32:05.697Z,17.70
2023-02-01T11:34:39.825Z,16.40
2023-02-01T11:37:18.348Z,15.00
2023-02-01T11:40:04.958Z,12.70
2023-02-01T11:42:33.365Z,19.60
2023-02-01T11:45:38.603Z,14.80
2023-02-01T11:48:15.087Z,17.80
2023-02-01T11:51:14.816Z,15.80
2023-02-01T11:54:01.249Z,15.30
2023-02-01T11:56:35.963Z,15.40
2023-02-01T11:59:31.038Z,18.80
2023-02-01T12:02:19.391Z,18.60
2023-02-01T12:05:09.535Z,23.70
2023-02-01T12:07:51.097Z,35.90
2023-02-01T12:10:23.175Z,73.70
2023-02-01T12:13:02.345Z,28.10
2023-02-01T12:16:02.812Z,22.40
2023-02-01T12:18:46.910Z,17.00
2023-02-01T12:21:34.965Z,20.20
2023-02-01T12:24:44.409Z,28.80
2023-02-01T12:27:34.262Z,23.10
2023-02-01T12:30:11.435Z,15.60
2023-02-01T12:33:05.829Z,15.00
2023-02-01T12:35:49.129Z,14.90
2023-02-01T12:38:28.019Z,16.00
2023-02-01T12:41:25.342Z,13.10
2023-02-01T12:44:00.413Z,12.60
2023-02-01T12:46:35.228Z,14.80
2023-02-01T12:49:03.567Z,15.70
2023-02-01T12:51:37.313Z,15.80
2023-02-01T12:54:13.231Z,13.80
2023-02-01T12:56:48.598Z,13.90
2023-02-01T12:59:51.195Z,18.60
2023-02-01T13:02:41.548Z,17.20
2023-02-01T13:05:14.097Z,13.40
2023-02-01T13:07:59.551Z,18.60
2023-02-01T13:10:35.301Z,17.10
2023-02-01T13:13:29.717Z,17.50
2023-02-01T13:16:06.222Z,14.10
2023-02-01T13:18:38.134Z,17.90
2023-02-01T13:21:10.053Z,16.90
2023-02-01T13:23:39.581Z,19.20
2023-02-01T13:26:11.072Z,18.30
2023-02-01T13:28:46.056Z,15.00
2023-02-01T13:31:50.609Z,17.40
2023-02-01T13:34:43.615Z,17.70
2023-02-01T13:37:47.016Z,18.00
2023-02-01T13:40:31.516Z,18.80
2023-02-01T13:43:02.238Z,27.10
2023-02-01T13:45:35.657Z,19.80
2023-02-01T13:48:05.959Z,19.80
2023-02-01T13:50:38.350Z,19.50
2023-02-01T13:53:12.412Z,19.50
2023-02-01T13:55:47.115Z,19.00
2023-02-01T13:58:35.191Z,18.90
2023-02-01T14:01:21.744Z,13.50
2023-02-01T14:03:58.881Z,18.00
2023-02-01T14:06:27.535Z,13.50
2023-02-01T14:09:13.361Z,16.10
2023-02-01T14:11:53.351Z,51.90
2023-02-01T14:14:21.405Z,27.80
2023-02-01T14:16:55.421Z,26.80
2023-02-01T14:19:43.040Z,21.00
2023-02-01T14:22:27.046Z,16.00
2023-02-01T14:24:56.069Z,14.80
2023-02-01T14:27:29.132Z,18.20
2023-02-01T14:30:00.554Z,14.00
2023-02-01T14:32:36.225Z,19.20
2023-02-01T14:35:27.260Z,15.80
2023-02-01T14:38:03.699Z,17.20
2023-02-01T14:40:32.140Z,17.50
2023-02-01T14:43:00.344Z,21.70
2023-02-01T14:45:29.117Z,18.50
2023-02-01T14:48:06.478Z,21.80
2023-02-01T14:50:43.773Z,16.00
2023-02-01T14:53:12.512Z,17.50
2023-02-01T14:55:43.763Z,18.30
2023-02-01T14:58:44.792Z,15.00
2023-02-01T15:01:33.561Z,17.80
2023-02-01T15:04:04.511Z,17.10
2023-02-01T15:06:42.430Z,18.70
2023-02-01T15:09:37.413Z,15.30
2023-02-01T15:12:11.679Z,15.60
2023-02-01T15:17:35.174Z,20.00
2023-02-01T15:20:26.913Z,18.30
2023-02-01T15:22:58.804Z,17.20
2023-02-01T15:25:36.344Z,16.20
2023-02-01T15:28:04.546Z,14.40
2023-02-01T15:30:34.582Z,19.30
2023-02-01T15:33:08.567Z,15.70
2023-02-01T15:35:43.461Z,19.50
2023-02-01T15:38:29.687Z,18.50
2023-02-01T15:41:02.631Z,23.20
2023-02-01T19:18:30.743Z,93.60
2023-02-01T19:21:06.163Z,83.00
2023-02-01T19:23:34.422Z,80.90
2023-02-01T19:26:02.373Z,82.50
2023-02-01T19:28:30.989Z,55.50
2023-02-01T19:31:03.955Z,43.60
2023-02-01T19:33:32.243Z,40.50
2023-02-01T19:36:01.342Z,45.20
2023-02-01T19:38:29.599Z,36.50
2023-02-01T19:40:57.905Z,35.10
2023-02-01T19:43:25.950Z,24.60
2023-02-01T19:45:54.389Z,23.90
2023-02-01T19:48:22.447Z,29.70
2023-02-01T19:50:50.401Z,24.60
2023-02-01T19:53:19.575Z,23.10
2023-02-01T19:55:47.850Z,22.60
2023-02-01T19:58:16.055Z,17.40
2023-02-01T20:00:43.161Z,20.10
2023-02-01T20:03:11.088Z,19.20
2023-02-01T20:05:39.235Z,23.10
2023-02-01T20:08:07.326Z,41.10
2023-02-01T20:10:36.054Z,69.50
2023-02-01T20:13:04.570Z,77.80
2023-02-01T20:15:32.557Z,68.30
2023-02-01T20:18:00.496Z,56.50
2023-02-01T20:20:29.455Z,50.90
2023-02-01T20:22:57.924Z,49.80
2023-02-01T20:25:25.974Z,40.00
2023-02-01T20:27:55.478Z,24.20
2023-02-01T20:30:23.742Z,19.20
2023-02-01T20:32:51.870Z,19.60
2023-02-01T20:35:19.819Z,15.60
2023-02-01T20:37:49.063Z,18.80
2023-02-01T20:40:17.822Z,16.60
2023-02-01T20:42:45.898Z,16.60
2023-02-01T20:45:13.900Z,16.10
2023-02-01T20:47:43.250Z,17.40
2023-02-01T20:50:11.900Z,16.80
2023-02-01T20:52:40.378Z,15.00
2023-02-01T20:55:08.822Z,14.20
2023-02-01T20:57:37.917Z,15.50
2023-02-01T21:00:12.645Z,17.00
2023-02-01T21:02:40.641Z,18.70
2023-02-01T21:05:09.469Z,17.00
2023-02-01T21:07:38.756Z,14.40
2023-02-01T21:10:07.769Z,18.90
2023-02-01T21:12:39.941Z,18.70
2023-02-01T21:15:08.684Z,25.30
2023-02-01T21:17:39.368Z,25.30
2023-02-01T21:20:08.620Z,22.80
2023-02-01T21:22:37.423Z,18.70
2023-02-01T21:25:06.022Z,23.00
2023-02-01T21:27:34.011Z,16.20
2023-02-01T21:30:02.347Z,16.90
2023-02-01T21:32:30.927Z,15.40
2023-02-01T21:34:58.814Z,19.30
2023-02-01T21:37:27.210Z,15.50
2023-02-01T21:39:56.471Z,17.90
2023-02-01T21:42:26.455Z,17.20
2023-02-01T21:44:55.262Z,15.20
2023-02-01T21:47:26.058Z,13.20
2023-02-01T21:49:54.941Z,19.00
